Date,TemperatureHighF,TemperatureAvgF,TemperatureLowF,DewpointHighF,DewpointAvgF,DewpointLowF,HumidityHigh,HumidityAvg,HumidityLow,PressureMaxIn,PressureMinIn,WindSpeedMaxMPH,WindSpeedAvgMPH,GustSpeedMaxMPH,PrecipitationSumIn
2013-1-1,48,36,24,23,14,6,79,45,21,30.18,30.17,20,8,29,0.00
2013-1-2,54,38,23,10,8,6,50,31,15,30.15,30.14,14,7,23,0.00
2013-1-3,55,38,26,12,7,1,51,31,11,30.22,30.20,17,6,24,0.00
2013-1-4,56,38,24,9,4,-1,48,27,10,30.24,30.23,6,4,11,0.00
2013-1-5,55,40,29,16,4,0,38,24,11,30.32,30.15,7,4,40,0.00
2013-1-6,50,41,37,39,32,18,93,72,39,0.00,40.00,20,12,29,0.00
2013-1-7,59,44,33,33,26,13,88,54,22,30.13,30.06,19,11,29,0.00
2013-1-8,65,48,34,28,23,16,55,40,24,30.22,30.15,10,5,17,0.00
2013-1-9,64,51,38,32,28,25,60,43,23,30.19,30.03,15,7,24,0.00
2013-1-10,47,38,32,37,26,18,96,64,39,29.93,29.92,32,21,47,0.00
2013-1-11,39,33,29,27,22,19,77,65,51,0.00,40.00,23,12,46,0.00
2013-1-12,46,32,20,22,15,5,83,53,24,30.11,30.04,15,7,22,0.00
2013-1-13,47,30,19,15,11,1,75,47,20,30.15,30.01,20,8,32,0.00
2013-1-14,39,28,14,3,-3,-8,51,28,13,30.33,30.15,12,8,49,0.00
2013-1-15,50,35,23,10,3,-4,38,26,15,30.48,30.33,15,10,24,0.00
2013-1-16,58,41,29,19,15,11,52,36,22,30.45,30.34,12,7,44,0.00
2013-1-17,61,43,28,16,10,3,52,30,10,30.30,30.24,18,7,26,0.00
2013-1-18,62,45,32,7,5,3,32,21,10,30.27,30.21,13,6,67,0.00
2013-1-19,63,45,31,7,3,-2,36,20,7,30.34,30.22,13,6,20,0.00
2013-1-20,64,46,32,6,2,-2,29,18,7,30.27,30.17,13,6,89,0.00
2013-1-21,66,46,30,6,1,-4,34,18,6,30.25,30.16,13,6,30,0.00
2013-1-22,66,46,32,6,2,-2,29,18,7,30.23,30.14,9,5,17,0.00
2013-1-23,68,54,44,38,8,5,66,17,9,30.19,30.10,9,4,15,0.00
2013-1-24,55,50,45,51,47,34,98,91,54,30.20,30.16,6,3,17,0.18
2013-1-25,52,49,46,50,48,45,99,97,92,30.03,40.00,5,2,64,0.17
2013-1-26,60,53,48,52,47,40,99,84,61,30.03,29.90,25,13,65,0.24
2013-1-27,50,42,37,45,32,24,97,68,50,29.99,29.94,31,23,47,0.01
2013-1-28,44,39,35,28,25,22,70,57,41,30.10,30.06,30,16,48,0.00
2013-1-29,55,44,38,28,27,25,64,51,33,30.15,30.10,34,18,51,0.00
2013-1-30,65,48,35,33,28,27,74,50,24,30.37,30.25,9,4,48,0.00
2013-1-31,67,53,35,33,29,27,71,44,24,30.32,30.19,8,6,17,0.00
2013-2-1,67,51,38,34,29,28,67,46,25,30.26,30.18,7,5,34,0.00
2013-2-2,64,54,44,45,32,27,76,47,26,30.31,30.22,9,5,52,0.00
2013-2-3,68,56,42,44,34,21,90,49,25,30.18,30.07,16,8,53,0.00
2013-2-4,72,54,39,31,25,23,55,36,16,30.16,30.04,8,5,65,0.00
2013-2-5,73,55,38,46,30,17,97,43,12,30.03,29.94,32,13,52,0.00
2013-2-6,65,48,40,46,24,-6,96,48,6,30.08,30.02,34,20,51,0.00
2013-2-7,62,46,33,38,24,-6,74,44,11,30.08,29.91,26,12,39,0.00
2013-2-8,47,37,32,34,30,23,98,78,50,29.91,29.86,24,14,69,0.20
2013-2-9,46,39,33,32,27,19,84,63,45,0.00,40.00,24,17,35,0.10
2013-2-10,57,44,34,34,25,19,96,52,24,29.97,29.96,14,9,67,0.01
2013-2-11,55,39,28,27,18,6,79,49,16,30.22,30.05,13,6,46,0.00
2013-2-12,59,41,28,20,12,7,54,33,13,30.27,30.22,9,5,49,0.00
2013-2-13,66,46,29,28,19,12,75,42,12,30.30,30.17,10,5,17,0.00
2013-2-14,68,50,34,28,20,15,56,34,14,30.27,30.16,21,8,32,0.00
2013-2-15,69,52,39,25,18,12,50,30,11,30.32,30.26,22,10,38,0.00
2013-2-16,70,50,37,20,14,11,42,26,10,30.28,30.01,9,5,44,0.00
2013-2-17,65,54,43,34,22,13,51,30,19,30.01,29.91,25,14,38,0.00
2013-2-18,66,51,39,38,29,19,73,47,20,30.01,29.88,21,10,51,0.00
2013-2-19,48,42,33,42,34,31,97,77,55,0.00,40.00,30,18,56,0.09
2013-2-20,43,36,30,32,28,22,98,73,54,29.91,29.60,37,26,54,0.08
2013-2-21,56,43,37,30,26,15,68,53,21,29.99,29.98,26,17,60,0.01
2013-2-22,64,46,30,32,23,17,64,44,19,30.17,30.11,20,8,28,0.00
2013-2-23,57,48,39,33,27,19,66,44,34,30.09,40.00,34,22,53,0.00
2013-2-24,56,42,33,30,6,-4,72,27,9,30.22,30.09,25,14,38,0.00
2013-2-25,68,48,29,23,11,1,39,24,9,30.22,30.06,25,11,33,0.00
2013-2-26,63,50,36,27,17,6,55,32,11,30.14,30.07,32,13,47,0.00
2013-2-27,62,46,32,14,7,4,37,23,10,30.34,30.27,15,7,24,0.00
2013-2-28,69,47,34,24,9,-1,42,25,6,30.41,30.34,12,7,54,0.00
2013-3-1,74,54,35,22,16,9,47,26,9,30.41,30.28,17,8,28,0.00
2013-3-2,79,60,43,22,18,16,35,22,10,30.30,30.12,17,8,27,0.00
2013-3-3,71,60,51,39,30,18,58,35,17,30.12,29.96,19,12,35,0.00
2013-3-4,73,58,46,45,37,30,83,51,20,30.07,29.98,23,11,34,0.00
2013-3-5,69,54,42,46,39,30,82,61,24,30.07,29.99,17,11,44,0.00
2013-3-6,53,46,41,41,38,34,89,73,55,0.00,40.00,26,18,41,0.00
2013-3-7,52,46,39,42,36,30,97,72,45,29.92,29.92,19,10,31,0.00
2013-3-8,47,41,34,41,36,32,97,83,57,29.81,29.81,22,11,39,0.15
2013-3-9,52,44,37,35,32,25,85,63,48,30.12,30.07,30,21,43,0.01
2013-3-10,68,52,34,26,18,6,65,33,9,30.31,30.23,14,8,24,0.00
2013-3-11,76,52,37,26,18,3,42,28,6,30.24,30.09,12,6,20,0.00
2013-3-12,80,58,41,26,19,10,47,26,7,30.18,30.11,9,5,32,0.00
2013-3-13,83,63,46,24,20,16,38,22,8,30.26,30.14,9,5,17,0.00
2013-3-14,92,66,47,32,25,19,40,23,7,30.22,30.09,15,7,23,0.00
2013-3-15,89,68,56,41,32,16,47,30,7,30.10,29.97,29,13,42,0.00
2013-3-16,72,63,55,44,36,30,56,39,23,30.01,29.94,36,24,56,0.00
2013-3-17,75,61,52,42,30,19,55,35,12,30.01,29.94,36,23,50,0.00
2013-3-18,78,62,54,36,23,8,48,26,8,30.07,29.99,29,17,43,0.00
2013-3-19,76,63,51,31,28,22,44,28,16,30.11,30.03,21,14,33,0.00
2013-3-20,70,61,54,41,37,28,54,42,21,30.10,29.96,30,20,46,0.00
2013-3-21,68,56,50,48,40,33,92,59,28,29.96,29.81,40,28,55,0.00
2013-3-22,70,54,45,38,30,24,65,43,19,29.99,29.81,40,28,57,0.00
2013-3-23,75,55,48,31,13,-5,49,21,5,30.07,29.93,27,16,51,0.00
2013-3-24,79,61,42,26,11,-15,27,15,5,30.06,29.94,23,9,30,0.00
2013-3-25,79,64,52,40,25,19,48,25,12,30.00,29.91,19,12,27,0.00
2013-3-26,76,61,50,40,29,13,50,33,9,29.96,29.91,17,10,28,0.00
2013-3-27,74,62,53,43,38,34,56,42,27,29.95,29.90,20,16,30,0.00
2013-3-28,78,67,56,40,35,30,51,32,22,30.06,30.02,20,10,32,0.00
2013-3-29,81,63,44,40,34,26,70,39,14,30.12,30.06,18,9,29,0.00
2013-3-30,78,65,51,41,33,25,52,33,15,30.10,30.04,21,12,45,0.00
2013-3-31,66,56,48,51,44,27,97,67,35,30.09,30.01,23,15,35,0.00
2013-4-1,66,54,45,47,40,32,98,63,30,30.09,30.04,27,15,38,0.00
2013-4-2,76,59,49,44,39,31,81,52,19,30.08,30.01,29,20,41,0.00
2013-4-3,84,66,44,43,32,25,52,32,12,30.08,30.03,20,11,50,0.00
2013-4-4,73,64,57,45,38,30,64,40,26,30.10,30.02,24,13,37,0.00
2013-4-5,65,57,51,50,46,40,97,66,43,30.08,30.08,32,24,52,0.00
2013-4-6,64,57,50,44,40,35,76,54,35,29.97,29.97,40,30,56,0.00
2013-4-7,68,58,51,46,39,31,81,51,27,29.98,29.89,36,29,53,0.00
2013-4-8,57,49,45,41,33,24,69,54,42,29.70,29.60,48,31,68,0.00
2013-4-9,66,53,42,28,22,14,49,33,13,29.96,29.89,26,16,38,0.00
2013-4-10,79,62,41,28,17,4,35,20,6,30.18,30.04,26,13,39,0.00
2013-4-11,79,67,59,42,36,28,53,34,18,29.92,29.79,26,20,39,0.00
2013-4-12,86,67,50,42,36,23,58,36,10,29.89,29.80,21,11,60,0.00
2013-4-13,80,67,55,47,41,34,70,41,20,29.87,29.78,25,17,49,0.00
2013-4-14,69,61,49,45,39,29,80,47,27,29.79,29.75,35,21,53,0.00
2013-4-15,63,53,46,46,41,26,94,65,44,29.81,29.81,29,22,43,0.00
2013-4-16,56,46,36,29,24,17,56,42,27,29.92,29.82,28,22,50,0.00
2013-4-17,63,51,38,24,17,11,46,28,13,0.00,40.00,20,13,40,0.00
2013-4-18,70,52,37,15,8,-5,34,19,6,30.30,30.21,19,9,39,0.00
2013-4-19,80,58,42,25,14,5,29,20,7,30.24,30.04,30,13,44,0.00
2013-4-20,87,68,60,37,26,3,33,24,4,30.06,29.97,23,16,90,0.00
2013-4-21,90,72,54,34,24,14,32,18,6,30.05,29.96,21,11,42,0.00
2013-4-22,85,72,61,43,29,17,46,22,9,29.98,29.87,24,16,41,0.00
2013-4-23,81,68,60,39,27,7,38,25,6,30.03,29.92,22,14,37,0.00
2013-4-24,83,62,52,49,35,18,79,43,9,29.93,29.83,31,14,48,0.00
2013-4-25,75,61,48,47,42,38,90,55,28,30.07,29.87,29,23,43,0.00
2013-4-26,88,68,53,45,37,4,62,38,4,30.17,30.07,21,13,29,0.00
2013-4-27,94,74,60,40,30,6,31,22,4,30.19,30.06,22,15,73,0.00
2013-4-28,95,77,67,38,32,17,33,22,6,30.06,29.91,24,18,53,0.00
2013-4-29,92,78,67,41,29,13,32,18,6,29.93,29.81,23,16,32,0.00
2013-4-30,82,72,59,49,41,31,68,34,21,29.81,29.77,24,17,40,0.00
2013-5-1,84,66,55,33,19,-18,38,22,2,30.18,30.06,27,14,41,0.00
2013-5-2,79,62,49,-4,-12,-30,8,5,1,30.32,30.18,28,12,41,0.00
2013-5-3,90,60,47,19,-4,-18,16,8,2,30.08,29.88,14,7,26,0.00
2013-5-4,84,69,54,46,30,7,75,26,6,29.86,29.71,32,21,48,0.00
2013-5-5,60,53,49,47,44,41,83,71,54,0.00,40.00,24,12,46,0.00
2013-5-6,61,53,48,51,47,41,98,80,50,29.97,29.92,25,14,37,0.08
2013-5-7,64,54,47,45,42,37,90,66,40,30.02,29.99,19,14,34,0.06
2013-5-8,72,59,47,49,45,40,95,63,33,30.07,30.01,21,16,31,0.00
2013-5-9,76,64,54,47,44,40,75,52,28,30.09,30.04,24,14,35,0.00
2013-5-10,90,74,60,47,42,33,58,35,13,30.15,30.07,22,14,38,0.00
2013-5-11,94,78,63,48,38,23,45,27,8,30.18,30.09,22,11,82,0.00
2013-5-12,96,82,72,48,40,22,40,25,7,30.17,30.06,19,14,46,0.00
2013-5-13,99,78,70,44,35,16,33,23,6,30.09,30.01,20,12,31,0.00
2013-5-14,88,75,65,38,28,12,29,20,6,30.01,29.92,23,13,102,0.00
2013-5-15,86,74,66,48,40,31,51,32,14,30.01,29.96,36,17,41,0.00
2013-5-16,75,60,58,41,19,-100,46,35,26,29.94,29.90,36,26,51,0.00
2013-5-17,73,63,55,45,34,-100,69,45,25,29.97,29.89,36,24,50,0.00
2013-5-18,77,66,55,37,28,22,44,26,14,30.04,29.97,37,25,52,0.00
2013-5-19,82,69,58,40,32,25,47,27,16,30.02,29.93,36,26,50,0.00
2013-5-20,89,70,53,39,29,9,44,25,5,30.09,29.97,27,12,38,0.00
2013-5-21,91,77,67,47,34,26,48,22,11,29.96,29.86,24,16,35,0.00
2013-5-22,70,61,53,39,29,20,43,30,22,29.84,29.79,32,26,45,0.00
2013-5-23,73,59,49,44,20,12,35,22,15,29.92,29.79,25,18,43,0.00
2013-5-24,79,64,48,46,34,21,60,36,14,29.95,29.91,26,17,39,0.00
2013-5-25,75,63,52,46,41,26,73,47,18,29.96,29.95,29,19,41,0.00
2013-5-26,75,64,54,43,36,31,57,36,23,30.02,30.01,31,23,42,0.00
2013-5-27,75,65,55,43,37,32,60,38,22,29.98,29.89,37,28,53,0.00
2013-5-28,69,62,55,49,46,43,76,58,43,29.89,29.81,41,29,60,0.00
2013-5-29,78,67,58,49,44,40,69,46,27,29.92,29.83,39,25,52,0.00
2013-5-30,85,72,59,45,32,18,48,26,10,29.91,29.85,39,27,57,0.00
2013-5-31,98,76,65,37,29,15,30,20,5,29.98,29.89,30,20,47,0.00
2013-6-1,102,79,61,41,33,12,41,21,4,29.97,29.85,21,8,46,0.00
2013-6-2,90,80,68,51,41,24,47,27,12,29.86,29.73,29,18,42,0.00
2013-6-3,87,74,63,46,39,31,47,29,20,29.86,29.76,27,23,41,0.00
2013-6-4,90,74,60,50,42,34,55,34,18,29.91,29.88,28,21,40,0.00
2013-6-5,95,78,63,48,42,36,56,30,14,29.97,29.90,27,17,40,0.00
2013-6-6,99,80,66,49,45,34,49,33,11,29.93,29.86,26,15,36,0.00
2013-6-7,106,84,69,51,43,16,44,27,4,29.91,29.80,22,11,32,0.00
2013-6-8,106,88,76,49,42,24,36,22,6,29.89,29.81,31,17,75,0.00
2013-6-9,92,79,67,43,33,15,37,20,6,29.91,29.85,28,20,41,0.00
2013-6-10,82,72,57,46,40,24,66,34,19,29.95,29.88,24,17,37,0.00
2013-6-11,98,80,64,40,35,19,40,22,6,29.97,29.92,24,15,37,0.00
2013-6-12,90,79,68,50,39,26,46,26,15,29.98,29.95,27,18,41,0.00
2013-6-13,84,71,65,37,28,16,32,21,9,29.96,29.96,30,23,42,0.00
2013-6-14,95,75,63,48,34,12,48,26,5,29.94,29.86,29,17,43,0.00
2013-6-15,86,74,62,47,39,27,55,32,13,29.94,29.88,26,20,37,0.00
2013-6-16,88,76,66,35,28,13,31,19,8,30.02,30.00,27,20,41,0.00
2013-6-17,88,76,66,38,31,22,33,21,9,30.02,29.95,29,25,45,0.00
2013-6-18,87,73,64,43,35,26,41,27,11,29.94,29.86,35,25,44,0.00
2013-6-19,78,66,54,43,29,15,50,29,9,29.93,29.86,36,31,52,0.00
2013-6-20,79,65,57,37,30,18,38,28,10,29.91,29.89,36,26,49,0.00
2013-6-22,93,78,72,31,28,20,20,17,7,29.93,29.87,25,16,36,0.00
2013-6-23,85,74,67,44,37,29,44,27,16,29.87,29.80,25,19,38,0.00
2013-6-24,75,66,58,55,49,41,74,56,40,29.95,29.80,25,20,39,0.00
2013-6-25,91,76,60,53,50,45,68,41,24,30.00,29.93,24,16,35,0.00
2013-6-26,98,83,69,55,52,47,58,37,21,30.06,29.99,22,16,36,0.00
2013-6-27,102,87,71,56,51,47,50,31,17,30.10,30.05,21,15,33,0.00
2013-6-28,106,87,74,55,50,42,46,31,12,30.09,29.97,21,13,36,0.00
2013-6-29,108,92,80,49,45,34,33,21,8,29.99,29.89,24,18,33,0.00
2013-6-30,110,93,82,46,41,35,25,18,8,29.93,29.85,24,13,32,0.00
2013-7-1,102,88,78,49,45,40,36,24,13,29.98,29.87,31,19,48,0.00
2013-7-2,102,88,78,48,44,34,34,23,10,30.04,29.96,30,19,43,0.00
2013-7-3,104,91,81,51,45,41,29,21,13,29.98,29.86,22,15,34,0.00
2013-7-4,102,90,79,50,47,43,37,24,15,29.88,29.79,28,20,42,0.00
2013-7-5,96,84,75,52,48,43,44,29,17,29.86,29.79,28,21,39,0.00
2013-7-6,96,83,74,52,47,42,44,30,17,29.86,29.80,25,20,38,0.00
2013-7-7,101,87,70,48,39,29,42,22,8,29.94,29.83,21,15,33,0.00
2013-7-8,100,80,72,36,33,21,25,20,6,30.06,29.94,21,8,34,0.00
2013-7-9,106,85,75,35,29,21,19,14,5,30.08,30.04,21,12,32,0.00
2013-7-10,94,82,79,49,34,-100,34,20,11,30.07,29.96,20,12,31,0.00
2013-7-11,85,77,70,53,47,34,55,36,17,30.02,29.94,28,19,39,0.00
2013-7-12,94,79,69,53,48,41,56,37,18,29.99,29.92,24,17,36,0.00
2013-7-13,101,85,67,44,37,31,40,21,10,30.02,29.94,18,12,27,0.00
2013-7-14,93,85,77,35,30,22,19,14,9,30.01,29.93,23,18,35,0.00
2013-7-15,97,85,76,33,30,27,18,14,9,29.94,29.87,22,16,39,0.00
2013-7-16,91,80,72,26,20,5,17,12,4,30.03,29.95,23,19,36,0.00
2013-7-17,98,76,67,40,31,20,34,22,7,30.08,30.02,18,12,27,0.00
2013-7-18,102,83,72,39,32,26,23,17,7,30.07,29.95,23,13,31,0.00
2013-7-19,102,81,71,45,35,28,28,20,9,29.98,29.87,24,14,37,0.00
2013-7-20,98,83,71,57,42,-100,45,26,12,29.92,29.84,32,18,44,0.00
2013-7-21,91,81,72,59,53,42,53,40,26,30.00,29.87,25,16,36,0.00
2013-7-22,94,78,65,62,57,47,79,52,32,30.04,29.96,27,14,39,0.08
2013-7-23,96,80,67,62,53,46,56,40,26,30.07,29.98,26,12,39,0.00
2013-7-24,101,86,70,53,49,44,51,30,18,30.03,29.95,21,14,46,0.00
2013-7-25,103,89,77,48,45,40,34,23,12,30.06,29.97,21,16,30,0.00
2013-7-26,97,85,76,55,51,45,48,31,21,30.14,30.05,20,13,35,0.00
2013-7-27,98,85,75,54,50,46,41,31,23,30.08,29.93,24,13,37,0.00
2013-7-28,92,80,71,53,48,39,48,35,16,29.94,29.86,28,20,40,0.00
2013-7-29,92,78,70,40,29,18,34,17,7,30.06,29.92,24,20,38,0.00
2013-7-30,93,81,70,46,38,29,32,23,13,30.12,30.04,25,16,38,0.00
2013-7-31,95,81,64,44,37,27,46,24,12,30.12,30.02,22,12,64,0.00
2013-8-1,89,78,69,44,34,25,38,23,10,30.03,29.95,27,20,40,0.00
2013-8-2,91,76,68,47,37,22,43,25,8,29.99,29.94,23,19,35,0.00
2013-8-3,93,79,64,46,37,29,46,24,11,30.01,29.95,24,17,34,0.00
2013-8-4,95,78,64,37,32,14,35,21,5,30.03,29.96,25,17,36,0.00
2013-8-5,96,77,65,32,26,9,27,16,4,30.02,29.97,24,14,35,0.00
2013-8-6,90,77,67,37,26,9,26,17,5,30.04,29.98,28,19,40,0.00
2013-8-7,90,73,62,43,35,25,38,27,10,30.08,30.02,22,15,32,0.00
2013-8-8,88,74,63,47,40,27,53,33,12,30.03,29.95,22,16,32,0.00
2013-8-9,88,72,62,47,40,25,53,34,10,29.99,29.93,23,14,34,0.00
2013-8-10,92,78,67,43,40,36,38,26,16,30.04,29.98,19,14,33,0.00
2013-8-11,94,78,66,45,42,34,45,30,13,30.02,29.95,20,16,30,0.00
2013-8-12,99,81,69,43,38,31,38,24,10,30.01,29.96,21,16,33,0.00
2013-8-13,101,80,70,43,34,-100,36,22,7,30.04,29.96,22,13,35,0.00
2013-8-14,99,79,73,39,29,-100,27,18,6,30.01,29.94,21,14,28,0.00
2013-8-15,97,72,71,45,17,-100,25,17,4,30.02,29.97,19,12,29,0.00
2013-8-16,99,84,73,47,36,-100,27,20,14,30.04,29.98,22,12,33,0.00
2013-8-17,100,84,74,43,36,28,29,19,8,30.04,29.91,20,12,30,0.00
2013-8-18,102,85,68,52,41,32,37,23,10,30.04,29.89,20,10,31,0.00
2013-8-21,99,85,74,36,29,23,25,14,9,30.01,29.92,23,11,38,0.00
2013-8-22,100,87,72,36,29,18,24,13,7,30.02,29.92,19,10,33,0.00
2013-8-23,96,84,69,41,29,18,27,16,6,29.96,29.83,22,12,32,0.00
2013-8-24,94,74,65,38,32,21,34,23,7,29.97,29.85,17,9,29,0.00
2013-8-25,95,77,61,40,30,23,29,19,9,30.02,29.93,20,10,30,0.00
2013-8-26,91,76,61,66,47,24,72,38,18,30.07,29.94,11,7,36,1.05
2013-8-27,84,72,66,63,61,58,89,68,46,29.99,29.96,7,4,11,1.05
2013-8-28,96,88,76,56,52,48,41,31,24,30.02,29.92,20,12,33,0.00
2013-8-29,102,85,70,49,46,41,46,28,14,30.08,30.00,15,8,25,0.00
2013-8-30,99,84,69,63,55,42,58,39,25,30.11,30.00,25,12,38,0.00
2013-8-31,93,82,74,64,62,59,67,53,36,30.06,29.97,24,17,36,0.00
2013-9-1,92,80,71,64,60,56,73,54,34,30.02,29.94,20,17,32,0.00
2013-9-2,96,83,73,61,54,46,62,40,22,30.01,29.93,18,13,30,0.00
2013-9-3,97,83,70,56,52,47,60,36,20,30.02,29.95,17,10,36,0.00
2013-9-4,102,85,69,50,47,42,48,30,14,30.06,29.96,17,9,29,0.00
2013-9-5,100,85,71,49,44,40,45,27,13,30.03,29.95,17,9,35,0.00
2013-9-6,100,84,67,48,41,37,45,24,12,30.02,29.91,20,8,28,0.00
2013-9-7,101,84,68,40,35,29,33,19,10,30.01,29.89,19,11,31,0.00
2013-9-17,90,74,58,46,33,20,43,26,8,29.88,29.78,23,14,38,0.00
2013-9-18,71,66,62,41,39,35,44,38,28,29.85,29.79,27,21,37,0.00
2013-9-19,85,66,57,46,35,17,50,34,8,29.94,29.83,17,6,28,0.00
2013-9-20,89,75,63,53,44,29,61,36,17,29.89,29.83,25,15,39,0.00
2013-9-21,75,65,56,52,49,39,78,58,40,29.89,29.80,28,20,39,0.00
2013-9-22,68,59,51,47,40,37,74,52,33,29.94,29.79,39,24,56,0.00
2013-9-23,87,69,49,41,33,25,61,32,11,30.05,29.94,16,7,27,0.00
2013-9-24,90,73,59,39,31,26,37,23,10,30.01,29.89,23,12,33,0.00
2013-9-25,69,61,55,44,39,35,60,45,32,29.89,29.73,30,24,45,0.00
2013-9-26,66,56,48,38,32,23,64,43,19,29.94,29.75,30,20,42,0.00
2013-9-27,74,60,46,31,23,13,55,27,11,30.11,29.94,22,10,34,0.00
2013-9-28,83,62,46,22,18,9,35,20,6,30.17,30.06,9,6,18,0.00
2013-9-29,90,72,57,23,18,7,22,14,5,30.13,30.05,21,13,33,0.00
2013-9-30,80,72,62,43,34,23,43,25,17,30.06,29.93,28,23,41,0.00
2013-10-3,70,62,55,41,32,26,46,33,20,29.96,29.84,37,26,53,0.00
2013-10-4,72,59,45,27,13,4,39,19,7,30.22,29.99,28,14,41,0.00
2013-10-5,77,60,43,19,12,5,31,17,6,30.33,30.22,27,13,37,0.00
2013-10-6,76,56,46,14,9,6,24,16,8,30.26,30.10,7,4,14,0.00
2013-10-7,85,63,50,20,11,6,16,13,5,30.09,29.94,20,11,31,0.00
2013-10-8,76,64,54,49,31,17,75,34,15,29.94,29.76,27,20,39,0.00
2013-10-9,56,50,43,45,41,34,82,71,57,29.78,29.65,30,20,44,0.02
2013-10-17,81,62,48,29,23,14,37,24,10,30.11,29.99,23,10,32,0.00
2013-10-18,79,60,47,24,18,10,37,22,7,30.14,30.04,12,6,19,0.00
2013-10-19,79,59,48,19,13,6,26,18,6,30.16,30.05,9,5,13,0.00
2013-10-20,82,62,51,25,17,9,25,18,9,30.06,29.95,12,6,20,0.00
2013-10-21,80,58,48,25,15,9,26,19,8,30.08,29.99,7,5,14,0.00
2013-10-22,82,66,49,17,13,10,22,14,7,30.12,29.98,10,5,18,0.00
2013-10-23,83,65,53,24,16,12,24,17,7,30.01,29.92,11,6,23,0.00
2013-10-24,87,68,56,26,21,11,30,18,6,30.06,29.96,22,11,35,0.00
2013-10-25,85,67,51,27,21,13,30,19,7,30.17,30.06,18,7,28,0.00
2013-10-26,85,67,52,22,18,11,26,17,6,30.20,30.08,9,6,17,0.00
2013-10-27,83,64,52,48,26,16,87,28,8,30.08,29.74,32,13,43,0.00
2013-10-28,59,50,45,50,40,-100,94,73,43,29.89,29.70,32,20,45,0.00
2013-10-29,58,50,43,41,37,35,86,64,44,29.99,29.89,20,13,32,0.00
2013-10-30,65,52,43,37,32,23,71,49,25,30.12,30.00,14,8,26,0.00
2013-10-31,70,53,37,33,25,17,69,39,16,30.20,30.10,10,6,16,0.00
2013-11-1,75,56,42,24,21,19,41,27,14,30.23,30.10,14,6,23,0.00
2013-11-2,81,59,44,28,23,21,44,27,11,30.13,29.91,17,7,26,0.00
2013-11-3,70,58,50,39,35,31,65,43,25,29.92,29.81,29,18,43,0.00
2013-11-4,69,53,46,34,27,23,56,37,19,30.01,29.79,21,14,32,0.00
2013-11-5,61,49,34,22,12,2,56,27,11,30.28,30.02,20,10,31,0.00
2013-11-6,68,51,35,8,6,4,29,17,8,30.38,30.27,14,7,24,0.00
2013-11-7,73,56,44,15,12,8,24,18,11,30.27,30.10,8,4,15,0.00
2013-11-8,75,58,40,30,16,9,30,20,8,30.11,29.98,17,8,25,0.00
2013-11-9,73,61,49,21,14,8,29,18,9,30.13,30.04,11,6,22,0.00
2013-11-10,73,59,46,17,14,11,29,19,9,30.20,30.12,8,5,14,0.00
2013-11-11,74,59,45,16,15,12,28,19,10,30.24,30.15,12,5,22,0.00
2013-11-12,74,58,53,15,12,7,21,17,8,30.29,30.23,8,4,11,0.00
2013-11-13,78,59,46,27,17,9,28,21,7,30.22,30.09,16,6,22,0.00
2013-11-14,79,62,49,28,22,20,34,23,11,30.11,29.80,20,6,26,0.00
2013-11-15,64,56,49,47,37,29,78,49,29,29.80,29.67,27,16,39,0.00
2013-11-16,61,52,44,45,42,34,87,70,49,29.91,29.72,25,19,40,0.00
2013-11-17,67,52,42,43,37,28,91,61,27,30.12,29.91,16,8,31,0.00
2013-11-18,69,52,41,47,38,31,93,62,34,30.16,30.04,18,7,26,0.00
2013-11-19,63,54,48,45,40,35,89,61,39,30.06,29.93,24,18,40,0.00
2013-11-20,62,54,50,51,45,38,97,73,50,29.94,29.85,27,18,37,0.00
2013-11-21,59,51,43,51,46,42,98,85,60,29.98,29.82,16,9,28,0.42
2013-11-22,44,39,39,42,31,-100,98,91,78,30.05,29.95,21,14,31,0.30
2013-11-23,46,42,39,42,40,38,99,94,82,30.15,30.03,12,7,19,0.02
2013-11-24,55,45,35,44,39,35,99,82,51,30.25,30.13,9,5,44,0.01
2013-11-25,64,46,35,37,32,27,97,63,25,30.31,30.23,9,4,12,0.01
2013-11-26,63,49,39,34,31,27,65,50,30,30.30,30.16,10,5,17,0.01
2013-11-27,59,49,40,34,31,28,62,50,37,30.16,29.96,14,4,20,0.00
2013-11-28,58,47,38,34,30,27,66,53,38,30.11,29.96,7,3,16,0.00
2013-11-29,55,48,41,36,32,28,64,54,43,30.24,30.11,9,4,13,0.00
2013-11-30,64,50,39,34,28,26,65,46,26,30.28,30.19,8,5,15,0.00
2013-12-1,65,49,39,27,24,22,54,41,21,30.34,30.25,9,5,32,0.00
2013-12-2,73,51,39,25,19,15,48,32,11,30.25,29.94,17,7,28,0.00
2013-12-3,65,54,39,42,31,18,76,44,24,29.93,29.69,32,17,48,0.00
2013-12-12,60,43,30,13,6,3,34,23,13,30.28,30.17,6,4,10,0.00
2013-12-13,67,52,38,9,5,2,23,16,9,30.31,30.16,10,5,17,0.00
2013-12-14,58,44,32,17,11,6,38,26,16,30.44,30.31,19,8,29,0.00
2013-12-15,63,47,32,15,12,10,40,25,13,30.43,30.29,11,5,17,0.00
2013-12-16,67,50,39,16,13,10,32,24,13,30.34,30.25,6,3,11,0.00
2013-12-17,68,52,40,15,14,11,32,23,12,30.30,30.14,6,4,10,0.00
2013-12-18,64,54,46,39,24,15,68,33,16,30.12,29.74,29,9,43,0.00
2013-12-19,51,45,36,40,34,29,77,67,55,29.81,29.66,30,18,48,0.02
2013-12-20,54,41,32,32,24,16,78,55,25,29.95,29.81,12,6,25,0.02
2013-12-21,65,50,38,29,24,15,47,37,26,30.08,29.86,20,12,32,0.00
2013-12-22,60,46,35,29,24,21,61,44,26,30.34,30.08,7,5,12,0.00
2013-12-23,63,48,37,26,23,20,52,39,24,30.43,30.34,12,6,21,0.00
2013-12-24,66,48,35,28,24,19,57,40,23,30.35,30.25,7,4,32,0.00